sensor_id;sensor_type;location;lat;lon;timestamp;temperature;humidity
61641;HTU21D;62201;49.966;8.342;2024-02-21T00:00:37;8.24;112.03
61641;HTU21D;62201;49.966;8.342;2024-02-21T00:03:07;8.29;111.60
61641;HTU21D;62201;49.966;8.342;2024-02-21T00:05:32;8.29;111.56
61641;HTU21D;62201;49.966;8.342;2024-02-21T00:07:59;8.28;112.07
61641;HTU21D;62201;49.966;8.342;2024-02-21T00:10:24;8.24;111.99
61641;HTU21D;62201;49.966;8.342;2024-02-21T00:12:51;8.29;111.76
61641;HTU21D;62201;49.966;8.342;2024-02-21T00:15:16;8.24;112.32
61641;HTU21D;62201;49.966;8.342;2024-02-21T00:17:43;8.22;112.50
61641;HTU21D;62201;49.966;8.342;2024-02-21T00:20:09;8.23;112.53
61641;HTU21D;62201;49.966;8.342;2024-02-21T00:22:34;8.22;112.26
61641;HTU21D;62201;49.966;8.342;2024-02-21T00:25:00;8.20;112.51
61641;HTU21D;62201;49.966;8.342;2024-02-21T00:27:25;8.17;112.90
61641;HTU21D;62201;49.966;8.342;2024-02-21T00:29:51;8.18;112.81
61641;HTU21D;62201;49.966;8.342;2024-02-21T00:32:16;8.14;112.75
61641;HTU21D;62201;49.966;8.342;2024-02-21T00:34:41;8.14;113.24
61641;HTU21D;62201;49.966;8.342;2024-02-21T00:37:07;8.12;113.21
61641;HTU21D;62201;49.966;8.342;2024-02-21T00:39:32;8.13;113.43
61641;HTU21D;62201;49.966;8.342;2024-02-21T00:41:57;8.12;113.67
61641;HTU21D;62201;49.966;8.342;2024-02-21T00:44:23;8.11;113.85
61641;HTU21D;62201;49.966;8.342;2024-02-21T00:46:48;8.14;113.09
61641;HTU21D;62201;49.966;8.342;2024-02-21T00:49:14;8.13;113.56
61641;HTU21D;62201;49.966;8.342;2024-02-21T00:51:39;8.15;113.23
61641;HTU21D;62201;49.966;8.342;2024-02-21T00:54:04;8.12;113.52
61641;HTU21D;62201;49.966;8.342;2024-02-21T00:56:31;8.20;112.58
61641;HTU21D;62201;49.966;8.342;2024-02-21T00:58:56;8.21;112.45
61641;HTU21D;62201;49.966;8.342;2024-02-21T01:01:23;8.20;112.45
61641;HTU21D;62201;49.966;8.342;2024-02-21T01:03:49;8.29;111.71
61641;HTU21D;62201;49.966;8.342;2024-02-21T01:06:14;8.24;112.57
61641;HTU21D;62201;49.966;8.342;2024-02-21T01:08:40;8.24;112.61
61641;HTU21D;62201;49.966;8.342;2024-02-21T01:11:05;8.29;111.45
61641;HTU21D;62201;49.966;8.342;2024-02-21T01:13:30;8.24;111.99
61641;HTU21D;62201;49.966;8.342;2024-02-21T01:15:56;8.18;112.61
61641;HTU21D;62201;49.966;8.342;2024-02-21T01:18:21;8.16;112.98
61641;HTU21D;62201;49.966;8.342;2024-02-21T01:20:46;8.18;112.77
61641;HTU21D;62201;49.966;8.342;2024-02-21T01:23:12;8.16;113.13
61641;HTU21D;62201;49.966;8.342;2024-02-21T01:25:37;8.09;114.35
61641;HTU21D;62201;49.966;8.342;2024-02-21T01:28:02;8.07;113.95
61641;HTU21D;62201;49.966;8.342;2024-02-21T01:30:28;8.04;114.03
61641;HTU21D;62201;49.966;8.342;2024-02-21T01:32:53;8.05;114.00
61641;HTU21D;62201;49.966;8.342;2024-02-21T01:35:19;8.00;113.88
61641;HTU21D;62201;49.966;8.342;2024-02-21T01:37:44;8.00;114.06
61641;HTU21D;62201;49.966;8.342;2024-02-21T01:40:10;8.04;113.74
61641;HTU21D;62201;49.966;8.342;2024-02-21T01:42:39;8.04;113.53
61641;HTU21D;62201;49.966;8.342;2024-02-21T01:45:06;8.03;113.52
61641;HTU21D;62201;49.966;8.342;2024-02-21T01:47:31;8.00;113.60
61641;HTU21D;62201;49.966;8.342;2024-02-21T01:49:57;7.96;113.50
61641;HTU21D;62201;49.966;8.342;2024-02-21T01:52:23;8.03;112.78
61641;HTU21D;62201;49.966;8.342;2024-02-21T01:54:48;7.98;113.20
61641;HTU21D;62201;49.966;8.342;2024-02-21T01:57:14;7.96;112.78
61641;HTU21D;62201;49.966;8.342;2024-02-21T01:59:40;7.91;113.45
61641;HTU21D;62201;49.966;8.342;2024-02-21T02:02:06;7.87;113.31
61641;HTU21D;62201;49.966;8.342;2024-02-21T02:04:31;7.88;113.31
61641;HTU21D;62201;49.966;8.342;2024-02-21T02:06:59;7.84;113.40
61641;HTU21D;62201;49.966;8.342;2024-02-21T02:09:25;7.88;113.20
61641;HTU21D;62201;49.966;8.342;2024-02-21T02:11:51;7.87;111.99
61641;HTU21D;62201;49.966;8.342;2024-02-21T02:14:16;7.91;111.74
61641;HTU21D;62201;49.966;8.342;2024-02-21T02:16:42;7.87;112.16
61641;HTU21D;62201;49.966;8.342;2024-02-21T02:19:10;7.87;111.74
61641;HTU21D;62201;49.966;8.342;2024-02-21T02:21:39;7.83;112.29
61641;HTU21D;62201;49.966;8.342;2024-02-21T02:24:07;7.73;113.22
61641;HTU21D;62201;49.966;8.342;2024-02-21T02:26:33;7.67;113.51
61641;HTU21D;62201;49.966;8.342;2024-02-21T02:28:58;7.63;113.81
61641;HTU21D;62201;49.966;8.342;2024-02-21T02:31:23;7.59;114.35
61641;HTU21D;62201;49.966;8.342;2024-02-21T02:33:49;7.63;113.93
61641;HTU21D;62201;49.966;8.342;2024-02-21T02:36:15;7.69;113.44
61641;HTU21D;62201;49.966;8.342;2024-02-21T02:38:40;7.71;113.52
61641;HTU21D;62201;49.966;8.342;2024-02-21T02:41:05;7.70;113.50
61641;HTU21D;62201;49.966;8.342;2024-02-21T02:43:31;7.84;112.66
61641;HTU21D;62201;49.966;8.342;2024-02-21T02:45:56;7.79;113.11
61641;HTU21D;62201;49.966;8.342;2024-02-21T02:48:22;7.82;112.77
61641;HTU21D;62201;49.966;8.342;2024-02-21T02:50:47;7.79;113.19
61641;HTU21D;62201;49.966;8.342;2024-02-21T02:53:14;7.76;113.65
61641;HTU21D;62201;49.966;8.342;2024-02-21T02:55:40;7.76;112.98
61641;HTU21D;62201;49.966;8.342;2024-02-21T02:58:05;7.76;113.83
61641;HTU21D;62201;49.966;8.342;2024-02-21T03:00:30;7.86;112.90
61641;HTU21D;62201;49.966;8.342;2024-02-21T03:02:56;7.82;113.36
61641;HTU21D;62201;49.966;8.342;2024-02-21T03:05:22;7.79;113.71
61641;HTU21D;62201;49.966;8.342;2024-02-21T03:07:48;7.84;113.25
61641;HTU21D;62201;49.966;8.342;2024-02-21T03:10:14;7.84;113.53
61641;HTU21D;62201;49.966;8.342;2024-02-21T03:12:41;7.89;113.67
61641;HTU21D;62201;49.966;8.342;2024-02-21T03:15:07;7.86;114.04
61641;HTU21D;62201;49.966;8.342;2024-02-21T03:17:33;7.86;114.19
61641;HTU21D;62201;49.966;8.342;2024-02-21T03:20:02;7.90;114.32
61641;HTU21D;62201;49.966;8.342;2024-02-21T03:22:34;7.91;114.61
61641;HTU21D;62201;49.966;8.342;2024-02-21T03:24:59;7.93;114.39
61641;HTU21D;62201;49.966;8.342;2024-02-21T03:27:25;7.92;114.53
61641;HTU21D;62201;49.966;8.342;2024-02-21T03:29:56;7.93;114.44
61641;HTU21D;62201;49.966;8.342;2024-02-21T03:32:22;7.93;113.88
61641;HTU21D;62201;49.966;8.342;2024-02-21T03:34:47;7.96;113.34
61641;HTU21D;62201;49.966;8.342;2024-02-21T03:37:13;8.03;112.68
61641;HTU21D;62201;49.966;8.342;2024-02-21T03:39:39;8.04;112.13
61641;HTU21D;62201;49.966;8.342;2024-02-21T03:42:06;8.07;111.68
61641;HTU21D;62201;49.966;8.342;2024-02-21T03:44:31;8.06;111.98
61641;HTU21D;62201;49.966;8.342;2024-02-21T03:46:58;8.11;111.76
61641;HTU21D;62201;49.966;8.342;2024-02-21T03:49:23;8.11;112.37
61641;HTU21D;62201;49.966;8.342;2024-02-21T03:51:49;8.05;113.35
61641;HTU21D;62201;49.966;8.342;2024-02-21T03:54:14;8.02;113.61
61641;HTU21D;62201;49.966;8.342;2024-02-21T03:56:39;7.98;114.29
61641;HTU21D;62201;49.966;8.342;2024-02-21T03:59:05;7.98;113.75
61641;HTU21D;62201;49.966;8.342;2024-02-21T04:01:31;7.96;114.48
61641;HTU21D;62201;49.966;8.342;2024-02-21T04:03:56;7.93;115.00
61641;HTU21D;62201;49.966;8.342;2024-02-21T04:06:22;7.91;114.87
61641;HTU21D;62201;49.966;8.342;2024-02-21T04:08:47;7.92;114.64
61641;HTU21D;62201;49.966;8.342;2024-02-21T04:11:13;7.93;114.53
61641;HTU21D;62201;49.966;8.342;2024-02-21T04:13:38;7.91;114.32
61641;HTU21D;62201;49.966;8.342;2024-02-21T04:16:04;7.91;113.22
61641;HTU21D;62201;49.966;8.342;2024-02-21T04:18:31;7.92;113.63
61641;HTU21D;62201;49.966;8.342;2024-02-21T04:20:56;7.90;113.08
61641;HTU21D;62201;49.966;8.342;2024-02-21T04:23:21;7.89;112.74
61641;HTU21D;62201;49.966;8.342;2024-02-21T04:25:47;7.92;112.35
61641;HTU21D;62201;49.966;8.342;2024-02-21T04:28:12;7.94;111.72
61641;HTU21D;62201;49.966;8.342;2024-02-21T04:30:37;7.94;111.62
61641;HTU21D;62201;49.966;8.342;2024-02-21T04:33:03;7.97;111.42
61641;HTU21D;62201;49.966;8.342;2024-02-21T04:35:28;8.00;110.71
61641;HTU21D;62201;49.966;8.342;2024-02-21T04:37:54;8.02;110.88
61641;HTU21D;62201;49.966;8.342;2024-02-21T04:40:20;8.00;110.94
61641;HTU21D;62201;49.966;8.342;2024-02-21T04:42:45;8.02;110.32
61641;HTU21D;62201;49.966;8.342;2024-02-21T04:45:10;8.00;110.07
61641;HTU21D;62201;49.966;8.342;2024-02-21T04:47:36;8.01;109.74
61641;HTU21D;62201;49.966;8.342;2024-02-21T04:50:01;8.02;109.01
61641;HTU21D;62201;49.966;8.342;2024-02-21T04:52:27;8.04;108.33
61641;HTU21D;62201;49.966;8.342;2024-02-21T04:54:52;8.04;108.43
61641;HTU21D;62201;49.966;8.342;2024-02-21T04:57:18;7.99;108.85
61641;HTU21D;62201;49.966;8.342;2024-02-21T04:59:44;7.91;109.27
61641;HTU21D;62201;49.966;8.342;2024-02-21T05:02:10;7.92;108.53
61641;HTU21D;62201;49.966;8.342;2024-02-21T05:04:36;7.99;108.30
61641;HTU21D;62201;49.966;8.342;2024-02-21T05:07:03;7.96;108.60
61641;HTU21D;62201;49.966;8.342;2024-02-21T05:09:29;7.96;108.59
61641;HTU21D;62201;49.966;8.342;2024-02-21T05:11:54;7.91;109.01
61641;HTU21D;62201;49.966;8.342;2024-02-21T05:14:20;7.92;108.95
61641;HTU21D;62201;49.966;8.342;2024-02-21T05:16:45;7.93;108.91
61641;HTU21D;62201;49.966;8.342;2024-02-21T05:19:10;7.96;109.05
61641;HTU21D;62201;49.966;8.342;2024-02-21T05:21:36;7.90;109.36
61641;HTU21D;62201;49.966;8.342;2024-02-21T05:24:01;7.88;109.91
61641;HTU21D;62201;49.966;8.342;2024-02-21T05:26:27;7.85;109.84
61641;HTU21D;62201;49.966;8.342;2024-02-21T05:28:53;7.85;110.20
61641;HTU21D;62201;49.966;8.342;2024-02-21T05:31:19;7.82;110.34
61641;HTU21D;62201;49.966;8.342;2024-02-21T05:33:45;7.79;110.13
61641;HTU21D;62201;49.966;8.342;2024-02-21T05:36:11;7.78;110.36
61641;HTU21D;62201;49.966;8.342;2024-02-21T05:38:36;7.72;111.08
61641;HTU21D;62201;49.966;8.342;2024-02-21T05:41:02;7.75;110.79
61641;HTU21D;62201;49.966;8.342;2024-02-21T05:43:27;7.71;111.15
61641;HTU21D;62201;49.966;8.342;2024-02-21T05:45:53;7.65;111.13
61641;HTU21D;62201;49.966;8.342;2024-02-21T05:48:18;7.60;111.79
61641;HTU21D;62201;49.966;8.342;2024-02-21T05:50:44;7.55;111.76
61641;HTU21D;62201;49.966;8.342;2024-02-21T05:53:09;7.60;110.98
61641;HTU21D;62201;49.966;8.342;2024-02-21T05:55:36;7.79;108.01
61641;HTU21D;62201;49.966;8.342;2024-02-21T05:58:01;7.71;108.65
61641;HTU21D;62201;49.966;8.342;2024-02-21T06:00:27;7.75;108.83
61641;HTU21D;62201;49.966;8.342;2024-02-21T06:02:53;7.68;109.76
61641;HTU21D;62201;49.966;8.342;2024-02-21T06:05:18;7.62;110.79
61641;HTU21D;62201;49.966;8.342;2024-02-21T06:07:43;7.52;112.26
61641;HTU21D;62201;49.966;8.342;2024-02-21T06:10:09;7.37;113.14
61641;HTU21D;62201;49.966;8.342;2024-02-21T06:12:34;7.29;114.28
61641;HTU21D;62201;49.966;8.342;2024-02-21T06:15:00;7.19;114.95
61641;HTU21D;62201;49.966;8.342;2024-02-21T06:17:25;7.22;114.73
61641;HTU21D;62201;49.966;8.342;2024-02-21T06:19:50;7.19;114.64
61641;HTU21D;62201;49.966;8.342;2024-02-21T06:22:16;7.24;113.93
61641;HTU21D;62201;49.966;8.342;2024-02-21T06:24:41;7.20;114.26
61641;HTU21D;62201;49.966;8.342;2024-02-21T06:27:06;7.28;113.54
61641;HTU21D;62201;49.966;8.342;2024-02-21T06:29:32;7.29;113.38
61641;HTU21D;62201;49.966;8.342;2024-02-21T06:31:58;7.25;113.32
61641;HTU21D;62201;49.966;8.342;2024-02-21T06:34:23;7.23;113.54
61641;HTU21D;62201;49.966;8.342;2024-02-21T06:36:49;7.25;113.35
61641;HTU21D;62201;49.966;8.342;2024-02-21T06:39:15;7.19;114.00
61641;HTU21D;62201;49.966;8.342;2024-02-21T06:41:40;7.19;114.26
61641;HTU21D;62201;49.966;8.342;2024-02-21T06:44:06;7.14;114.62
61641;HTU21D;62201;49.966;8.342;2024-02-21T06:46:31;7.05;115.84
61641;HTU21D;62201;49.966;8.342;2024-02-21T06:48:59;7.04;115.45
61641;HTU21D;62201;49.966;8.342;2024-02-21T06:51:25;6.97;115.89
61641;HTU21D;62201;49.966;8.342;2024-02-21T06:53:53;6.93;116.00
61641;HTU21D;62201;49.966;8.342;2024-02-21T06:56:18;6.96;115.94
61641;HTU21D;62201;49.966;8.342;2024-02-21T06:58:44;6.94;116.14
61641;HTU21D;62201;49.966;8.342;2024-02-21T07:01:10;6.93;116.18
61641;HTU21D;62201;49.966;8.342;2024-02-21T07:03:35;6.94;115.51
61641;HTU21D;62201;49.966;8.342;2024-02-21T07:06:01;7.00;114.95
61641;HTU21D;62201;49.966;8.342;2024-02-21T07:08:26;7.05;113.74
61641;HTU21D;62201;49.966;8.342;2024-02-21T07:10:52;7.11;113.58
61641;HTU21D;62201;49.966;8.342;2024-02-21T07:13:17;7.11;114.01
61641;HTU21D;62201;49.966;8.342;2024-02-21T07:15:43;7.13;114.04
61641;HTU21D;62201;49.966;8.342;2024-02-21T07:18:08;7.15;113.10
61641;HTU21D;62201;49.966;8.342;2024-02-21T07:20:34;7.15;112.67
61641;HTU21D;62201;49.966;8.342;2024-02-21T07:23:02;7.22;112.80
61641;HTU21D;62201;49.966;8.342;2024-02-21T07:25:27;7.22;112.73
61641;HTU21D;62201;49.966;8.342;2024-02-21T07:27:53;7.35;111.66
61641;HTU21D;62201;49.966;8.342;2024-02-21T07:30:18;7.45;110.65
61641;HTU21D;62201;49.966;8.342;2024-02-21T07:32:43;7.54;110.25
61641;HTU21D;62201;49.966;8.342;2024-02-21T07:35:09;7.47;110.25
61641;HTU21D;62201;49.966;8.342;2024-02-21T07:37:37;7.67;110.01
61641;HTU21D;62201;49.966;8.342;2024-02-21T07:40:04;7.68;109.88
61641;HTU21D;62201;49.966;8.342;2024-02-21T07:42:30;7.74;110.45
61641;HTU21D;62201;49.966;8.342;2024-02-21T07:44:55;7.83;110.23
61641;HTU21D;62201;49.966;8.342;2024-02-21T07:47:22;7.85;110.32
61641;HTU21D;62201;49.966;8.342;2024-02-21T07:49:47;7.78;110.25
61641;HTU21D;62201;49.966;8.342;2024-02-21T07:52:14;7.82;110.07
61641;HTU21D;62201;49.966;8.342;2024-02-21T07:54:39;7.85;108.17
61641;HTU21D;62201;49.966;8.342;2024-02-21T07:57:05;7.86;107.39
61641;HTU21D;62201;49.966;8.342;2024-02-21T07:59:30;7.93;107.04
61641;HTU21D;62201;49.966;8.342;2024-02-21T08:01:56;8.01;107.52
61641;HTU21D;62201;49.966;8.342;2024-02-21T08:04:23;8.16;104.82
61641;HTU21D;62201;49.966;8.342;2024-02-21T08:06:52;8.12;105.88
61641;HTU21D;62201;49.966;8.342;2024-02-21T08:09:18;8.04;105.74
61641;HTU21D;62201;49.966;8.342;2024-02-21T08:11:44;8.24;105.11
61641;HTU21D;62201;49.966;8.342;2024-02-21T08:14:09;8.26;104.23
61641;HTU21D;62201;49.966;8.342;2024-02-21T08:16:35;8.33;103.79
61641;HTU21D;62201;49.966;8.342;2024-02-21T08:19:00;8.26;105.00
61641;HTU21D;62201;49.966;8.342;2024-02-21T08:21:27;8.23;104.64
61641;HTU21D;62201;49.966;8.342;2024-02-21T08:23:53;8.34;104.03
61641;HTU21D;62201;49.966;8.342;2024-02-21T08:26:19;8.36;103.72
61641;HTU21D;62201;49.966;8.342;2024-02-21T08:28:45;8.52;103.68
61641;HTU21D;62201;49.966;8.342;2024-02-21T08:31:10;8.33;105.15
61641;HTU21D;62201;49.966;8.342;2024-02-21T08:33:35;8.55;103.43
61641;HTU21D;62201;49.966;8.342;2024-02-21T08:36:01;8.51;102.47
61641;HTU21D;62201;49.966;8.342;2024-02-21T08:38:26;8.34;103.98
61641;HTU21D;62201;49.966;8.342;2024-02-21T08:40:52;8.52;102.15
61641;HTU21D;62201;49.966;8.342;2024-02-21T08:43:17;8.62;102.09
61641;HTU21D;62201;49.966;8.342;2024-02-21T08:45:42;8.61;102.46
61641;HTU21D;62201;49.966;8.342;2024-02-21T08:48:08;8.57;103.04
61641;HTU21D;62201;49.966;8.342;2024-02-21T08:50:33;8.81;100.81
61641;HTU21D;62201;49.966;8.342;2024-02-21T08:52:59;8.89;100.80
61641;HTU21D;62201;49.966;8.342;2024-02-21T08:55:24;8.93;100.94
61641;HTU21D;62201;49.966;8.342;2024-02-21T08:57:49;8.85;102.10
61641;HTU21D;62201;49.966;8.342;2024-02-21T09:00:16;9.12;99.71
61641;HTU21D;62201;49.966;8.342;2024-02-21T09:02:42;9.45;99.82
61641;HTU21D;62201;49.966;8.342;2024-02-21T09:05:10;9.59;97.91
61641;HTU21D;62201;49.966;8.342;2024-02-21T09:07:36;10.00;95.70
61641;HTU21D;62201;49.966;8.342;2024-02-21T09:10:02;10.28;94.91
61641;HTU21D;62201;49.966;8.342;2024-02-21T09:12:28;10.14;95.14
61641;HTU21D;62201;49.966;8.342;2024-02-21T09:14:54;9.53;97.39
61641;HTU21D;62201;49.966;8.342;2024-02-21T09:17:19;9.32;97.26
61641;HTU21D;62201;49.966;8.342;2024-02-21T09:19:50;9.47;96.29
61641;HTU21D;62201;49.966;8.342;2024-02-21T09:22:15;9.56;96.37
61641;HTU21D;62201;49.966;8.342;2024-02-21T09:24:41;9.50;98.15
61641;HTU21D;62201;49.966;8.342;2024-02-21T09:27:06;9.64;97.29
61641;HTU21D;62201;49.966;8.342;2024-02-21T09:29:32;9.70;96.95
61641;HTU21D;62201;49.966;8.342;2024-02-21T09:31:58;10.11;95.72
61641;HTU21D;62201;49.966;8.342;2024-02-21T09:34:24;10.38;93.02
61641;HTU21D;62201;49.966;8.342;2024-02-21T09:36:49;10.01;94.24
61641;HTU21D;62201;49.966;8.342;2024-02-21T09:39:14;10.34;93.74
61641;HTU21D;62201;49.966;8.342;2024-02-21T09:41:47;9.94;94.93
61641;HTU21D;62201;49.966;8.342;2024-02-21T09:44:17;9.77;96.43
61641;HTU21D;62201;49.966;8.342;2024-02-21T09:47:03;9.59;97.21
61641;HTU21D;62201;49.966;8.342;2024-02-21T09:49:31;9.70;97.32
61641;HTU21D;62201;49.966;8.342;2024-02-21T09:52:00;9.78;95.80
61641;HTU21D;62201;49.966;8.342;2024-02-21T09:54:28;9.66;95.75
61641;HTU21D;62201;49.966;8.342;2024-02-21T09:56:54;9.76;96.40
61641;HTU21D;62201;49.966;8.342;2024-02-21T09:59:20;9.97;94.79
61641;HTU21D;62201;49.966;8.342;2024-02-21T10:01:46;10.31;93.33
61641;HTU21D;62201;49.966;8.342;2024-02-21T10:04:12;10.44;92.85
61641;HTU21D;62201;49.966;8.342;2024-02-21T10:06:38;10.95;90.90
61641;HTU21D;62201;49.966;8.342;2024-02-21T10:09:05;10.13;93.44
61641;HTU21D;62201;49.966;8.342;2024-02-21T10:11:31;10.39;91.24
61641;HTU21D;62201;49.966;8.342;2024-02-21T10:14:06;10.48;91.92
61641;HTU21D;62201;49.966;8.342;2024-02-21T10:16:32;9.88;94.39
61641;HTU21D;62201;49.966;8.342;2024-02-21T10:18:58;10.11;93.31
61641;HTU21D;62201;49.966;8.342;2024-02-21T10:21:24;10.57;92.27
61641;HTU21D;62201;49.966;8.342;2024-02-21T10:23:49;10.27;92.77
61641;HTU21D;62201;49.966;8.342;2024-02-21T10:26:17;10.92;90.87
61641;HTU21D;62201;49.966;8.342;2024-02-21T10:28:42;11.10;90.25
61641;HTU21D;62201;49.966;8.342;2024-02-21T10:31:10;11.18;90.06
61641;HTU21D;62201;49.966;8.342;2024-02-21T10:33:36;10.60;91.34
61641;HTU21D;62201;49.966;8.342;2024-02-21T10:36:10;10.80;90.24
61641;HTU21D;62201;49.966;8.342;2024-02-21T10:38:38;10.81;90.21
61641;HTU21D;62201;49.966;8.342;2024-02-21T10:41:05;10.54;90.18
61641;HTU21D;62201;49.966;8.342;2024-02-21T10:43:37;10.57;90.75
61641;HTU21D;62201;49.966;8.342;2024-02-21T10:46:03;11.09;89.63
61641;HTU21D;62201;49.966;8.342;2024-02-21T10:48:34;10.69;90.71
61641;HTU21D;62201;49.966;8.342;2024-02-21T10:53:57;10.94;89.31
61641;HTU21D;62201;49.966;8.342;2024-02-21T10:56:32;11.15;88.90
61641;HTU21D;62201;49.966;8.342;2024-02-21T10:59:02;11.26;87.79
61641;HTU21D;62201;49.966;8.342;2024-02-21T11:01:31;11.23;87.64
61641;HTU21D;62201;49.966;8.342;2024-02-21T11:04:02;11.33;86.84
61641;HTU21D;62201;49.966;8.342;2024-02-21T11:06:28;10.87;89.70
61641;HTU21D;62201;49.966;8.342;2024-02-21T11:09:03;11.41;86.80
61641;HTU21D;62201;49.966;8.342;2024-02-21T11:11:33;11.24;87.93
61641;HTU21D;62201;49.966;8.342;2024-02-21T11:14:06;11.24;86.88
61641;HTU21D;62201;49.966;8.342;2024-02-21T11:16:39;11.29;86.83
61641;HTU21D;62201;49.966;8.342;2024-02-21T11:19:08;11.16;87.18
61641;HTU21D;62201;49.966;8.342;2024-02-21T11:21:36;10.66;88.73
61641;HTU21D;62201;49.966;8.342;2024-02-21T11:24:05;10.55;88.91
61641;HTU21D;62201;49.966;8.342;2024-02-21T11:26:32;10.79;87.14
61641;HTU21D;62201;49.966;8.342;2024-02-21T11:29:01;10.85;88.35
61641;HTU21D;62201;49.966;8.342;2024-02-21T11:31:42;10.70;88.91
61641;HTU21D;62201;49.966;8.342;2024-02-21T11:34:28;11.03;86.97
61641;HTU21D;62201;49.966;8.342;2024-02-21T11:36:53;10.73;88.55
61641;HTU21D;62201;49.966;8.342;2024-02-21T11:39:23;11.17;87.38
61641;HTU21D;62201;49.966;8.342;2024-02-21T11:42:19;11.13;87.60
61641;HTU21D;62201;49.966;8.342;2024-02-21T11:44:45;10.78;88.71
61641;HTU21D;62201;49.966;8.342;2024-02-21T11:47:10;10.87;89.63
61641;HTU21D;62201;49.966;8.342;2024-02-21T11:49:37;11.36;88.92
61641;HTU21D;62201;49.966;8.342;2024-02-21T11:52:06;11.41;90.02
61641;HTU21D;62201;49.966;8.342;2024-02-21T11:54:32;11.51;89.35
61641;HTU21D;62201;49.966;8.342;2024-02-21T11:56:59;11.30;89.52
61641;HTU21D;62201;49.966;8.342;2024-02-21T11:59:25;11.26;87.64
61641;HTU21D;62201;49.966;8.342;2024-02-21T12:01:50;11.16;87.44
61641;HTU21D;62201;49.966;8.342;2024-02-21T12:04:20;11.11;86.25
61641;HTU21D;62201;49.966;8.342;2024-02-21T12:06:46;11.12;86.66
61641;HTU21D;62201;49.966;8.342;2024-02-21T12:09:17;11.37;86.89
61641;HTU21D;62201;49.966;8.342;2024-02-21T12:11:43;11.40;87.56
61641;HTU21D;62201;49.966;8.342;2024-02-21T12:14:09;11.45;88.76
61641;HTU21D;62201;49.966;8.342;2024-02-21T12:16:35;11.14;90.73
61641;HTU21D;62201;49.966;8.342;2024-02-21T12:19:04;11.23;87.89
61641;HTU21D;62201;49.966;8.342;2024-02-21T12:21:33;11.56;87.20
61641;HTU21D;62201;49.966;8.342;2024-02-21T12:24:22;11.68;87.99
61641;HTU21D;62201;49.966;8.342;2024-02-21T12:26:49;11.45;88.97
61641;HTU21D;62201;49.966;8.342;2024-02-21T12:29:14;11.25;90.85
61641;HTU21D;62201;49.966;8.342;2024-02-21T12:31:40;11.47;90.58
61641;HTU21D;62201;49.966;8.342;2024-02-21T12:34:05;11.52;88.93
61641;HTU21D;62201;49.966;8.342;2024-02-21T12:36:32;11.16;90.98
61641;HTU21D;62201;49.966;8.342;2024-02-21T12:38:57;11.20;89.97
61641;HTU21D;62201;49.966;8.342;2024-02-21T12:41:23;11.11;90.89
61641;HTU21D;62201;49.966;8.342;2024-02-21T12:43:50;11.12;90.90
61641;HTU21D;62201;49.966;8.342;2024-02-21T12:46:16;11.24;89.39
61641;HTU21D;62201;49.966;8.342;2024-02-21T12:48:42;10.96;89.93
61641;HTU21D;62201;49.966;8.342;2024-02-21T12:51:07;11.14;88.61
61641;HTU21D;62201;49.966;8.342;2024-02-21T12:53:33;11.42;87.23
61641;HTU21D;62201;49.966;8.342;2024-02-21T12:55:59;11.17;87.02
61641;HTU21D;62201;49.966;8.342;2024-02-21T12:58:24;11.27;87.89
61641;HTU21D;62201;49.966;8.342;2024-02-21T13:00:49;11.16;87.22
61641;HTU21D;62201;49.966;8.342;2024-02-21T13:03:15;11.27;86.72
61641;HTU21D;62201;49.966;8.342;2024-02-21T13:05:40;11.20;88.12
61641;HTU21D;62201;49.966;8.342;2024-02-21T13:08:06;11.29;89.07
61641;HTU21D;62201;49.966;8.342;2024-02-21T13:10:32;11.26;89.67
61641;HTU21D;62201;49.966;8.342;2024-02-21T13:12:59;11.38;88.78
61641;HTU21D;62201;49.966;8.342;2024-02-21T13:15:25;11.18;90.32
61641;HTU21D;62201;49.966;8.342;2024-02-21T13:17:50;11.37;89.43
61641;HTU21D;62201;49.966;8.342;2024-02-21T13:20:15;11.10;89.69
61641;HTU21D;62201;49.966;8.342;2024-02-21T13:22:41;11.29;89.45
61641;HTU21D;62201;49.966;8.342;2024-02-21T13:25:06;11.32;88.75
61641;HTU21D;62201;49.966;8.342;2024-02-21T13:27:33;11.42;87.66
61641;HTU21D;62201;49.966;8.342;2024-02-21T13:29:58;11.32;87.38
61641;HTU21D;62201;49.966;8.342;2024-02-21T13:32:25;11.29;87.99
61641;HTU21D;62201;49.966;8.342;2024-02-21T13:34:50;11.60;87.45
61641;HTU21D;62201;49.966;8.342;2024-02-21T13:37:17;11.58;87.90
61641;HTU21D;62201;49.966;8.342;2024-02-21T13:39:43;11.55;87.36
61641;HTU21D;62201;49.966;8.342;2024-02-21T13:42:08;11.37;88.85
61641;HTU21D;62201;49.966;8.342;2024-02-21T13:44:34;11.53;88.06
61641;HTU21D;62201;49.966;8.342;2024-02-21T13:46:59;11.59;87.96
61641;HTU21D;62201;49.966;8.342;2024-02-21T13:49:25;11.30;87.51
61641;HTU21D;62201;49.966;8.342;2024-02-21T13:51:50;11.44;88.19
61641;HTU21D;62201;49.966;8.342;2024-02-21T13:54:15;11.39;87.73
61641;HTU21D;62201;49.966;8.342;2024-02-21T13:56:44;11.45;86.85
61641;HTU21D;62201;49.966;8.342;2024-02-21T13:59:11;11.45;87.91
61641;HTU21D;62201;49.966;8.342;2024-02-21T14:01:37;11.53;86.67
61641;HTU21D;62201;49.966;8.342;2024-02-21T14:04:02;11.46;87.35
61641;HTU21D;62201;49.966;8.342;2024-02-21T14:06:29;11.32;86.47
61641;HTU21D;62201;49.966;8.342;2024-02-21T14:08:54;11.36;85.66
61641;HTU21D;62201;49.966;8.342;2024-02-21T14:11:20;11.27;87.43
61641;HTU21D;62201;49.966;8.342;2024-02-21T14:13:45;11.33;86.80
61641;HTU21D;62201;49.966;8.342;2024-02-21T14:16:11;11.45;87.01
61641;HTU21D;62201;49.966;8.342;2024-02-21T14:18:40;11.28;85.89
61641;HTU21D;62201;49.966;8.342;2024-02-21T14:21:09;11.36;85.71
61641;HTU21D;62201;49.966;8.342;2024-02-21T14:23:37;11.41;85.77
61641;HTU21D;62201;49.966;8.342;2024-02-21T14:26:04;11.44;85.64
61641;HTU21D;62201;49.966;8.342;2024-02-21T14:28:30;11.40;85.66
61641;HTU21D;62201;49.966;8.342;2024-02-21T14:30:55;11.44;85.38
61641;HTU21D;62201;49.966;8.342;2024-02-21T14:33:23;11.64;85.43
61641;HTU21D;62201;49.966;8.342;2024-02-21T14:35:49;11.51;86.57
61641;HTU21D;62201;49.966;8.342;2024-02-21T14:38:14;11.52;86.24
61641;HTU21D;62201;49.966;8.342;2024-02-21T14:40:40;11.61;86.63
61641;HTU21D;62201;49.966;8.342;2024-02-21T14:43:05;11.54;86.48
61641;HTU21D;62201;49.966;8.342;2024-02-21T14:45:31;11.75;86.20
61641;HTU21D;62201;49.966;8.342;2024-02-21T14:47:56;11.73;86.08
61641;HTU21D;62201;49.966;8.342;2024-02-21T14:50:21;11.64;86.04
61641;HTU21D;62201;49.966;8.342;2024-02-21T14:52:48;11.54;86.13
61641;HTU21D;62201;49.966;8.342;2024-02-21T14:55:14;11.75;86.08
61641;HTU21D;62201;49.966;8.342;2024-02-21T14:57:39;11.49;85.84
61641;HTU21D;62201;49.966;8.342;2024-02-21T15:00:07;11.47;86.23
61641;HTU21D;62201;49.966;8.342;2024-02-21T15:02:33;11.40;86.86
61641;HTU21D;62201;49.966;8.342;2024-02-21T15:05:00;11.55;86.45
61641;HTU21D;62201;49.966;8.342;2024-02-21T15:07:26;11.49;87.99
61641;HTU21D;62201;49.966;8.342;2024-02-21T15:09:51;11.41;90.16
61641;HTU21D;62201;49.966;8.342;2024-02-21T15:12:17;11.33;91.88
61641;HTU21D;62201;49.966;8.342;2024-02-21T15:14:42;11.20;93.14